createdAt,value
2022-09-15T00:01:58.201Z,8.80
2022-09-15T00:04:26.372Z,12.50
2022-09-15T00:06:54.483Z,11.90
2022-09-15T00:09:22.560Z,9.30
2022-09-15T00:11:50.758Z,9.80
2022-09-15T00:14:18.864Z,10.40
2022-09-15T00:16:47.008Z,13.90
2022-09-15T00:19:15.595Z,10.70
2022-09-15T00:21:43.847Z,11.70
2022-09-15T00:24:11.840Z,10.50
2022-09-15T00:26:39.918Z,8.50
2022-09-15T00:29:09.017Z,9.90
2022-09-15T00:31:37.379Z,9.60
2022-09-15T00:34:07.252Z,11.60
2022-09-15T00:36:35.395Z,7.70
2022-09-15T00:39:06.401Z,12.00
2022-09-15T00:41:34.968Z,10.80
2022-09-15T00:44:25.303Z,9.00
2022-09-15T00:47:15.673Z,11.10
2022-09-15T00:49:49.495Z,12.30
2022-09-15T00:52:36.347Z,9.40
2022-09-15T00:55:10.425Z,10.80
2022-09-15T00:57:50.579Z,12.50
2022-09-15T01:00:22.124Z,10.40
2022-09-15T01:02:51.009Z,8.90
2022-09-15T01:05:25.935Z,9.70
2022-09-15T01:07:59.324Z,8.90
2022-09-15T01:10:34.183Z,9.50
2022-09-15T01:13:05.740Z,9.30
2022-09-15T01:15:48.552Z,15.80
2022-09-15T01:18:32.530Z,13.10
2022-09-15T01:21:38.248Z,9.80
2022-09-15T01:24:09.275Z,9.70
2022-09-15T01:26:54.130Z,12.90
2022-09-15T01:29:44.212Z,10.10
2022-09-15T01:32:45.241Z,12.10
2022-09-15T01:35:28.251Z,10.10
2022-09-15T01:38:03.900Z,8.50
2022-09-15T01:40:45.703Z,9.40
2022-09-15T01:43:17.072Z,12.60
2022-09-15T01:45:48.475Z,10.70
2022-09-15T01:48:20.365Z,12.70
2022-09-15T01:50:53.210Z,17.30
2022-09-15T01:53:23.011Z,10.40
2022-09-15T01:55:56.496Z,10.50
2022-09-15T01:58:24.628Z,9.10
2022-09-15T02:01:16.354Z,9.00
2022-09-15T02:03:50.536Z,12.50
2022-09-15T02:06:21.996Z,9.50
2022-09-15T02:08:57.499Z,9.40
2022-09-15T02:11:28.196Z,9.30
2022-09-15T02:14:33.972Z,11.20
2022-09-15T02:17:05.572Z,10.00
2022-09-15T02:19:41.911Z,9.10
2022-09-15T02:22:13.421Z,9.60
2022-09-15T02:24:50.105Z,10.40
2022-09-15T02:27:24.265Z,10.90
2022-09-15T02:29:56.299Z,10.60
2022-09-15T02:32:28.753Z,14.40
2022-09-15T02:34:58.806Z,9.50
2022-09-15T02:37:27.771Z,10.10
2022-09-15T02:40:00.863Z,8.30
2022-09-15T02:42:31.327Z,7.90
2022-09-15T02:45:00.930Z,10.20
2022-09-15T02:47:29.493Z,9.10
2022-09-15T02:49:57.577Z,8.10
2022-09-15T02:52:26.469Z,10.40
2022-09-15T02:54:54.502Z,12.60
2022-09-15T02:57:22.721Z,11.00
2022-09-15T03:00:09.541Z,10.00
2022-09-15T03:02:37.851Z,8.70
2022-09-15T03:05:08.354Z,12.70
2022-09-15T03:07:38.186Z,9.90
2022-09-15T03:10:08.381Z,12.80
2022-09-15T03:12:47.683Z,8.00
2022-09-15T03:15:18.224Z,8.30
2022-09-15T03:17:48.093Z,11.90
2022-09-15T03:20:20.169Z,10.30
2022-09-15T03:22:49.695Z,9.20
2022-09-15T03:25:18.469Z,10.60
2022-09-15T03:27:47.390Z,12.60
2022-09-15T03:30:15.717Z,9.70
2022-09-15T03:32:44.034Z,9.80
2022-09-15T03:35:11.986Z,9.70
2022-09-15T03:37:40.171Z,9.20
2022-09-15T03:40:10.827Z,13.20
2022-09-15T03:42:39.236Z,8.00
2022-09-15T03:45:09.193Z,10.40
2022-09-15T03:47:37.285Z,13.00
2022-09-15T03:50:06.914Z,8.60
2022-09-15T03:52:34.995Z,9.00
2022-09-15T03:55:03.058Z,9.50
2022-09-15T03:57:31.036Z,8.30
2022-09-15T04:00:00.107Z,12.10
2022-09-15T04:02:28.066Z,12.20
2022-09-15T04:04:56.215Z,11.70
2022-09-15T04:07:24.301Z,8.20
2022-09-15T04:09:52.712Z,9.40
2022-09-15T04:12:20.694Z,10.10
2022-09-15T04:14:48.683Z,11.70
2022-09-15T04:17:16.876Z,18.60
2022-09-15T04:19:44.841Z,8.60
2022-09-15T04:22:17.516Z,7.40
2022-09-15T04:24:51.936Z,13.20
2022-09-15T04:27:20.010Z,11.30
2022-09-15T04:29:52.381Z,9.60
2022-09-15T04:32:20.815Z,9.90
2022-09-15T04:34:49.216Z,13.70
2022-09-15T04:37:19.117Z,9.00
2022-09-15T04:39:48.026Z,11.80
2022-09-15T04:42:17.494Z,23.60
2022-09-15T04:44:45.515Z,12.70
2022-09-15T04:47:13.622Z,12.40
2022-09-15T04:49:42.139Z,11.80
2022-09-15T04:52:10.298Z,12.90
2022-09-15T04:54:38.365Z,11.70
2022-09-15T04:57:06.966Z,18.20
2022-09-15T04:59:37.132Z,20.00
2022-09-15T05:02:05.278Z,17.60
2022-09-15T05:04:33.695Z,14.10
2022-09-15T05:07:03.858Z,18.10
2022-09-15T05:09:31.943Z,14.70
2022-09-15T05:12:03.055Z,17.30
2022-09-15T05:14:33.439Z,17.40
2022-09-15T05:17:02.010Z,12.70
2022-09-15T05:19:30.260Z,12.30
2022-09-15T05:21:58.643Z,15.00
2022-09-15T05:24:29.579Z,17.30
2022-09-15T05:26:57.696Z,13.90
2022-09-15T05:29:26.016Z,14.30
2022-09-15T05:31:54.091Z,22.50
2022-09-15T05:34:22.099Z,20.30
2022-09-15T05:36:50.400Z,14.90
2022-09-15T05:39:18.585Z,23.00
2022-09-15T05:41:46.575Z,26.20
2022-09-15T05:44:14.661Z,29.50
2022-09-15T05:46:44.834Z,30.30
2022-09-15T05:49:13.220Z,32.80
2022-09-15T05:51:42.189Z,40.80
2022-09-15T05:54:10.885Z,37.80
2022-09-15T05:56:38.953Z,24.00
2022-09-15T05:59:07.235Z,41.80
2022-09-15T06:01:38.160Z,40.30
2022-09-15T06:04:06.451Z,36.90
2022-09-15T06:06:39.683Z,35.10
2022-09-15T06:09:08.134Z,28.20
2022-09-15T06:11:40.580Z,34.90
2022-09-15T06:14:08.788Z,35.30
2022-09-15T06:16:37.338Z,34.00
2022-09-15T06:19:06.143Z,27.20
2022-09-15T06:21:37.674Z,27.70
2022-09-15T06:24:07.546Z,30.60
2022-09-15T06:26:35.815Z,33.20
2022-09-15T06:29:05.634Z,22.50
2022-09-15T06:31:35.915Z,21.00
2022-09-15T06:34:05.591Z,22.70
2022-09-15T06:36:34.003Z,22.30
2022-09-15T06:39:05.178Z,25.10
2022-09-15T06:41:58.381Z,18.60
2022-09-15T06:44:22.482Z,21.70
2022-09-15T06:46:51.027Z,21.40
2022-09-15T06:49:20.733Z,23.40
2022-09-15T06:51:49.036Z,24.00
2022-09-15T06:54:17.518Z,17.80
2022-09-15T06:56:47.365Z,20.40
2022-09-15T06:59:20.009Z,16.40
2022-09-15T07:01:54.753Z,11.50
2022-09-15T07:04:23.508Z,18.60
2022-09-15T07:06:54.371Z,17.00
2022-09-15T07:09:22.787Z,19.90
2022-09-15T07:11:53.360Z,17.50
2022-09-15T07:14:23.692Z,12.80
2022-09-15T07:16:52.749Z,15.30
2022-09-15T07:19:21.090Z,13.50
2022-09-15T07:21:50.597Z,10.00
2022-09-15T07:24:19.779Z,10.00
2022-09-15T07:26:48.375Z,10.40
2022-09-15T07:29:17.003Z,9.30
2022-09-15T07:31:45.294Z,7.30
2022-09-15T07:34:13.993Z,24.50
2022-09-15T07:36:43.293Z,31.80
2022-09-15T07:39:12.036Z,34.60
2022-09-15T07:41:40.381Z,34.90
2022-09-15T07:44:12.127Z,30.90
2022-09-15T07:46:40.471Z,33.00
2022-09-15T07:49:10.714Z,29.10
2022-09-15T07:51:38.825Z,30.30
2022-09-15T07:54:07.741Z,38.30
2022-09-15T07:56:36.178Z,39.20
2022-09-15T07:59:08.161Z,39.60
2022-09-15T08:01:36.327Z,32.50
2022-09-15T08:04:04.947Z,12.80
2022-09-15T08:06:34.004Z,10.10
2022-09-15T08:09:02.505Z,7.50
2022-09-15T08:11:33.433Z,7.70
2022-09-15T08:14:03.875Z,3.40
2022-09-15T08:16:34.478Z,4.10
2022-09-15T08:19:04.329Z,7.10
2022-09-15T08:21:38.152Z,5.10
2022-09-15T08:24:06.527Z,4.20
2022-09-15T08:26:38.477Z,2.70
2022-09-15T08:29:07.619Z,4.10
2022-09-15T08:31:35.836Z,3.50
2022-09-15T08:34:07.404Z,5.60
2022-09-15T08:36:35.686Z,2.60
2022-09-15T08:39:05.231Z,7.00
2022-09-15T08:41:43.353Z,3.50
2022-09-15T08:44:35.199Z,5.10
2022-09-15T08:47:27.447Z,4.20
2022-09-15T08:49:59.424Z,2.60
2022-09-15T08:52:38.744Z,4.80
2022-09-15T08:55:14.909Z,8.60
2022-09-15T08:57:43.252Z,4.50
2022-09-15T09:00:16.963Z,4.80
2022-09-15T09:03:03.668Z,4.20
2022-09-15T09:05:53.519Z,4.10
2022-09-15T09:08:53.066Z,41.90
2022-09-15T09:11:25.227Z,5.50
2022-09-15T09:14:25.825Z,4.20
2022-09-15T09:17:18.210Z,4.60
2022-09-15T09:20:12.091Z,5.10
2022-09-15T09:22:44.249Z,4.70
2022-09-15T09:25:27.137Z,3.10
2022-09-15T09:28:02.383Z,3.70
2022-09-15T09:30:33.745Z,1.90
2022-09-15T09:33:26.359Z,4.00
2022-09-15T09:35:54.593Z,3.30
2022-09-15T09:38:32.011Z,3.50
2022-09-15T09:41:02.513Z,3.80
2022-09-15T09:43:31.904Z,4.40
2022-09-15T09:46:02.780Z,6.80
2022-09-15T09:48:32.527Z,5.10
2022-09-15T09:51:00.746Z,2.20
2022-09-15T09:53:34.246Z,1.40
2022-09-15T09:56:25.052Z,2.30
2022-09-15T09:58:55.022Z,4.00
2022-09-15T10:01:26.989Z,3.80
2022-09-15T10:04:30.917Z,2.40
2022-09-15T10:07:00.117Z,3.50
2022-09-15T10:09:33.466Z,1.50
2022-09-15T10:12:04.490Z,2.70
2022-09-15T10:14:33.117Z,4.30
2022-09-15T10:17:16.497Z,3.90
2022-09-15T10:20:07.531Z,2.90
2022-09-15T10:22:41.102Z,3.90
2022-09-15T10:25:55.178Z,2.20
2022-09-15T10:28:26.989Z,1.80
2022-09-15T10:31:25.845Z,3.30
2022-09-15T10:33:54.403Z,2.10
2022-09-15T10:36:34.565Z,4.50
2022-09-15T10:39:23.472Z,5.70
2022-09-15T10:42:07.480Z,6.30
2022-09-15T10:44:49.018Z,6.40
2022-09-15T10:47:38.901Z,1.80
2022-09-15T10:50:25.347Z,19.20
2022-09-15T10:53:06.266Z,6.10
2022-09-15T10:55:58.367Z,2.70
2022-09-15T10:58:35.487Z,2.20
2022-09-15T11:01:09.631Z,3.30
2022-09-15T11:03:49.265Z,5.50
2022-09-15T11:06:23.662Z,5.60
2022-09-15T11:09:04.347Z,4.10
2022-09-15T11:12:00.464Z,1.50
2022-09-15T11:14:58.856Z,3.80
2022-09-15T11:17:44.143Z,3.30
2022-09-15T11:20:40.277Z,6.00
2022-09-15T11:23:20.869Z,3.60
2022-09-15T11:25:57.281Z,3.10
2022-09-15T11:29:00.899Z,3.60
2022-09-15T11:31:40.304Z,9.00
2022-09-15T11:34:34.161Z,6.10
2022-09-15T11:37:24.551Z,4.10
2022-09-15T11:40:22.001Z,3.50
2022-09-15T11:43:17.138Z,5.10
2022-09-15T11:45:57.766Z,3.60
2022-09-15T11:48:52.821Z,3.70
2022-09-15T11:51:28.084Z,3.30
2022-09-15T11:54:14.693Z,6.10
2022-09-15T11:56:48.548Z,2.70
2022-09-15T11:59:47.883Z,3.50
2022-09-15T12:02:38.710Z,3.00
2022-09-15T12:05:33.253Z,3.80
2022-09-15T12:08:17.511Z,4.00
2022-09-15T12:13:20.615Z,3.60
2022-09-15T12:15:50.756Z,4.50
2022-09-15T12:18:42.898Z,5.20
2022-09-15T12:21:30.640Z,1.80
2022-09-15T12:24:14.211Z,7.70
2022-09-15T12:26:46.795Z,3.70
2022-09-15T12:29:27.561Z,4.20
2022-09-15T12:32:21.982Z,8.80
2022-09-15T12:35:18.513Z,4.10
2022-09-15T12:37:47.668Z,3.30
2022-09-15T12:40:33.579Z,2.20
2022-09-15T12:43:16.557Z,2.50
2022-09-15T12:46:00.952Z,7.10
2022-09-15T12:51:10.663Z,4.70
2022-09-15T12:53:57.015Z,5.30
2022-09-15T12:56:31.507Z,2.30
2022-09-15T12:59:07.847Z,2.50
2022-09-15T13:01:49.960Z,2.30
2022-09-15T13:04:52.978Z,3.30
2022-09-15T13:07:52.104Z,1.50
2022-09-15T13:10:31.111Z,8.20
2022-09-15T13:13:12.750Z,4.40
2022-09-15T13:15:48.923Z,3.10
2022-09-15T13:18:19.369Z,1.20
2022-09-15T13:20:57.732Z,3.40
2022-09-15T13:23:29.901Z,5.10
2022-09-15T13:26:00.441Z,3.90
2022-09-15T13:28:31.705Z,1.70
2022-09-15T13:31:20.350Z,2.50
2022-09-15T13:40:46.028Z,4.20
2022-09-15T13:43:38.722Z,2.70
2022-09-15T13:46:41.550Z,1.70
2022-09-15T13:49:38.147Z,5.40
2022-09-15T13:52:31.257Z,3.50
2022-09-15T13:55:19.647Z,2.80
2022-09-15T14:00:58.692Z,3.70
2022-09-15T14:04:06.044Z,3.90
2022-09-15T14:06:39.225Z,2.80
2022-09-15T14:09:17.773Z,3.70
2022-09-15T14:14:28.114Z,2.80
2022-09-15T14:16:57.283Z,5.10
2022-09-15T14:19:39.805Z,10.70
2022-09-15T14:22:31.052Z,5.40
2022-09-15T14:25:06.344Z,7.10
2022-09-15T14:27:44.978Z,4.70
2022-09-15T14:30:21.790Z,4.90
2022-09-15T14:33:19.193Z,2.80
2022-09-15T14:35:48.425Z,5.40
2022-09-15T14:38:24.855Z,9.10
2022-09-15T14:40:57.514Z,7.50
2022-09-15T14:43:35.700Z,3.30
2022-09-15T14:46:18.688Z,3.10
2022-09-15T14:48:47.230Z,3.50
2022-09-15T14:51:23.889Z,5.70
2022-09-15T14:53:58.064Z,3.00
2022-09-15T14:56:31.333Z,4.70
2022-09-15T14:59:05.576Z,4.30
2022-09-15T15:01:36.857Z,5.50
2022-09-15T15:04:42.978Z,2.50
2022-09-15T15:07:20.117Z,3.30
2022-09-15T15:10:00.805Z,4.50
2022-09-15T15:12:36.249Z,4.90
2022-09-15T15:15:05.659Z,6.80
2022-09-15T15:17:42.152Z,5.90
2022-09-15T15:20:10.306Z,7.10
2022-09-15T15:22:40.486Z,8.00
2022-09-15T15:25:29.916Z,8.30
2022-09-15T15:27:59.623Z,4.30
2022-09-15T15:31:06.239Z,6.50
2022-09-15T15:33:34.413Z,17.80
2022-09-15T15:36:11.975Z,5.20
2022-09-15T15:38:47.401Z,3.30
2022-09-15T15:41:33.361Z,5.60
2022-09-15T15:44:17.119Z,7.60
2022-09-15T15:46:51.234Z,6.10
2022-09-15T15:49:25.927Z,6.40
2022-09-15T15:51:56.819Z,6.00
2022-09-15T15:54:28.265Z,6.50
2022-09-15T15:57:20.319Z,4.00
2022-09-15T15:59:48.763Z,6.00
2022-09-15T16:02:17.087Z,5.90
2022-09-15T16:04:45.531Z,7.60
2022-09-15T16:07:19.181Z,8.40
2022-09-15T16:09:48.949Z,11.30
2022-09-15T16:12:17.223Z,12.30
2022-09-15T16:14:45.304Z,9.90
2022-09-15T16:17:13.989Z,10.80
2022-09-15T16:19:42.099Z,9.60
2022-09-15T16:22:18.641Z,8.00
2022-09-15T16:24:49.266Z,5.00
2022-09-15T16:27:18.887Z,5.30
2022-09-15T16:29:47.143Z,8.50
2022-09-15T16:32:18.922Z,8.40
2022-09-15T16:34:54.357Z,8.00
2022-09-15T16:37:22.496Z,11.60
2022-09-15T16:39:52.616Z,11.20
2022-09-15T16:42:21.262Z,10.20
2022-09-15T16:44:53.415Z,10.50
2022-09-15T16:47:21.577Z,12.60
2022-09-15T16:49:51.508Z,14.90
2022-09-15T16:52:20.168Z,16.10
2022-09-15T16:54:48.853Z,12.80
2022-09-15T16:57:19.687Z,10.40
2022-09-15T16:59:49.813Z,14.00
2022-09-15T17:02:20.670Z,13.40
2022-09-15T17:04:49.302Z,13.50
2022-09-15T17:07:18.857Z,16.10
2022-09-15T17:09:48.743Z,15.10
2022-09-15T17:12:17.769Z,19.50
2022-09-15T17:14:46.733Z,9.80
2022-09-15T17:17:25.551Z,9.80
2022-09-15T17:19:54.199Z,10.20
2022-09-15T17:22:22.528Z,7.60
2022-09-15T17:24:53.453Z,10.90
2022-09-15T17:27:22.611Z,9.50
2022-09-15T17:29:51.702Z,10.20
2022-09-15T17:32:19.866Z,12.10
2022-09-15T17:34:48.225Z,11.50
2022-09-15T17:37:16.523Z,9.60
2022-09-15T17:39:45.423Z,9.30
2022-09-15T17:42:13.795Z,11.70
2022-09-15T17:44:42.175Z,14.60
2022-09-15T17:47:10.190Z,9.20
2022-09-15T17:49:38.421Z,10.00
2022-09-15T17:52:11.055Z,12.60
2022-09-15T17:54:39.238Z,9.10
2022-09-15T17:57:07.669Z,7.70
2022-09-15T17:59:35.718Z,8.20
2022-09-15T18:02:03.998Z,7.40
2022-09-15T18:04:32.318Z,11.50
2022-09-15T18:07:00.402Z,19.00
2022-09-15T18:09:28.602Z,12.30
2022-09-15T18:11:56.935Z,15.90
2022-09-15T18:14:25.035Z,12.80
2022-09-15T18:16:53.309Z,8.40
2022-09-15T18:19:21.374Z,6.50
2022-09-15T18:21:53.560Z,10.10
2022-09-15T18:24:23.364Z,13.70
2022-09-15T18:26:52.449Z,10.60
2022-09-15T18:29:23.758Z,11.90
2022-09-15T18:31:53.054Z,14.60
2022-09-15T18:34:21.022Z,14.00
2022-09-15T18:36:49.049Z,9.00
2022-09-15T18:39:17.594Z,8.50
2022-09-15T18:41:46.447Z,10.80
2022-09-15T18:44:15.069Z,9.80
2022-09-15T18:46:43.245Z,7.90
2022-09-15T18:49:11.430Z,13.30
2022-09-15T18:51:51.230Z,6.00
2022-09-15T18:54:20.094Z,7.00
2022-09-15T18:56:48.123Z,11.70
2022-09-15T18:59:18.141Z,9.00
2022-09-15T19:01:49.853Z,11.30
2022-09-15T19:04:19.011Z,11.70
2022-09-15T19:06:47.852Z,11.40
2022-09-15T19:09:16.096Z,12.40
2022-09-15T19:11:44.294Z,18.60
2022-09-15T19:14:13.100Z,11.50
2022-09-15T19:16:57.203Z,14.00
2022-09-15T19:19:27.734Z,14.30
2022-09-15T19:21:55.856Z,11.80
2022-09-15T19:24:30.572Z,16.60
2022-09-15T19:26:59.248Z,15.10
2022-09-15T19:29:28.062Z,12.00
2022-09-15T19:31:58.456Z,12.90
2022-09-15T19:34:27.114Z,13.50
2022-09-15T19:36:56.101Z,20.40
2022-09-15T19:39:24.900Z,9.80
2022-09-15T19:41:55.277Z,16.20
2022-09-15T19:44:23.889Z,13.10
2022-09-15T19:46:53.256Z,14.30
2022-09-15T19:49:21.628Z,12.90
2022-09-15T19:51:55.351Z,11.30
2022-09-15T19:54:25.107Z,23.70
2022-09-15T19:56:53.469Z,17.30
2022-09-15T19:59:21.823Z,14.50
2022-09-15T20:01:50.005Z,15.10
2022-09-15T20:04:18.485Z,12.20
2022-09-15T20:06:46.767Z,16.40
2022-09-15T20:09:15.673Z,13.90
2022-09-15T20:11:43.977Z,12.90
2022-09-15T20:14:14.473Z,18.00
2022-09-15T20:16:42.756Z,12.20
2022-09-15T20:19:11.044Z,17.40
2022-09-15T20:21:56.584Z,11.30
2022-09-15T20:24:25.545Z,16.20
2022-09-15T20:26:53.903Z,14.70
2022-09-15T20:29:23.405Z,13.10
2022-09-15T20:31:51.787Z,14.70
2022-09-15T20:34:20.066Z,15.10
2022-09-15T20:36:49.064Z,15.00
2022-09-15T20:39:19.605Z,12.20
2022-09-15T20:41:47.878Z,13.20
2022-09-15T20:44:16.159Z,9.20
2022-09-15T20:46:44.868Z,11.60
2022-09-15T20:49:13.542Z,13.80
2022-09-15T20:51:42.367Z,8.10
2022-09-15T20:54:11.095Z,12.20
2022-09-15T20:56:39.190Z,10.70
2022-09-15T20:59:10.388Z,11.90
2022-09-15T21:01:40.135Z,15.20
2022-09-15T21:04:10.251Z,12.90
2022-09-15T21:06:39.017Z,16.70
2022-09-15T21:09:08.160Z,9.10
2022-09-15T21:11:37.042Z,10.80
2022-09-15T21:14:05.104Z,13.10
2022-09-15T21:16:35.009Z,12.20
2022-09-15T21:19:03.784Z,12.90
2022-09-15T21:21:33.737Z,10.90
2022-09-15T21:24:04.773Z,15.10
2022-09-15T21:27:00.993Z,7.80
2022-09-15T21:29:29.681Z,11.50
2022-09-15T21:31:58.150Z,13.30
2022-09-15T21:34:26.522Z,10.20
2022-09-15T21:36:54.679Z,11.20
2022-09-15T21:39:23.070Z,13.90
2022-09-15T21:41:51.239Z,13.00
2022-09-15T21:44:19.276Z,8.60
2022-09-15T21:46:48.444Z,8.00
2022-09-15T21:49:18.156Z,7.70
2022-09-15T21:51:46.562Z,11.50
2022-09-15T21:54:14.960Z,10.50
2022-09-15T21:56:42.919Z,9.80
2022-09-15T21:59:10.928Z,9.00
2022-09-15T22:01:40.029Z,9.00
2022-09-15T22:04:09.053Z,5.10
2022-09-15T22:06:40.770Z,6.60
2022-09-15T22:09:21.442Z,8.20
2022-09-15T22:11:49.556Z,5.30
2022-09-15T22:14:17.993Z,10.00
2022-09-15T22:16:46.331Z,7.00
2022-09-15T22:19:14.413Z,7.70
2022-09-15T22:21:42.878Z,8.30
2022-09-15T22:24:13.665Z,7.00
2022-09-15T22:26:42.975Z,7.80
2022-09-15T22:29:11.959Z,9.20
2022-09-15T22:31:41.101Z,7.70
2022-09-15T22:34:09.965Z,7.90
2022-09-15T22:36:38.315Z,8.50
2022-09-15T22:39:06.716Z,10.20
2022-09-15T22:41:39.060Z,9.80
2022-09-15T22:44:16.888Z,6.80
2022-09-15T22:46:45.081Z,5.90
2022-09-15T22:49:13.019Z,8.40
2022-09-15T22:51:40.967Z,6.00
2022-09-15T22:54:09.102Z,7.20
2022-09-15T22:56:37.152Z,5.20
2022-09-15T22:59:05.211Z,7.80
2022-09-15T23:01:33.467Z,7.80
2022-09-15T23:04:02.731Z,9.20
2022-09-15T23:06:34.994Z,8.40
2022-09-15T23:09:09.670Z,8.60
2022-09-15T23:11:42.792Z,11.30
2022-09-15T23:14:16.516Z,5.40
2022-09-15T23:16:44.550Z,9.90
2022-09-15T23:19:13.647Z,13.90
2022-09-15T23:21:41.821Z,6.90
2022-09-15T23:24:12.593Z,5.80
2022-09-15T23:26:41.166Z,12.60
2022-09-15T23:29:10.209Z,4.70
2022-09-15T23:31:38.417Z,7.50
2022-09-15T23:34:06.510Z,6.40
2022-09-15T23:36:34.437Z,10.60
2022-09-15T23:39:02.521Z,8.40
2022-09-15T23:41:30.612Z,6.30
2022-09-15T23:43:59.964Z,9.50
2022-09-15T23:46:28.090Z,8.70
2022-09-15T23:48:56.064Z,6.40
2022-09-15T23:51:24.243Z,10.30
2022-09-15T23:53:52.758Z,8.50
2022-09-15T23:56:20.921Z,9.10
2022-09-15T23:58:49.706Z,5.90
